createdAt,value
2023-02-24T00:01:13.909Z,28.52
2023-02-24T00:05:15.559Z,26.02
2023-02-24T00:09:20.100Z,25.88
2023-02-24T00:13:22.260Z,28.58
2023-02-24T00:17:27.594Z,29.23
2023-02-24T00:21:29.727Z,24.42
2023-02-24T00:25:31.357Z,28.33
2023-02-24T00:29:33.703Z,39.40
2023-02-24T00:33:35.464Z,36.78
2023-02-24T00:37:37.133Z,32.22
2023-02-24T00:41:43.338Z,24.90
2023-02-24T00:45:47.058Z,25.30
2023-02-24T00:49:49.949Z,28.15
2023-02-24T00:53:57.137Z,21.92
2023-02-24T01:02:00.646Z,25.15
2023-02-24T01:06:03.269Z,27.73
2023-02-24T01:10:08.409Z,26.65
2023-02-24T01:14:13.676Z,36.17
2023-02-24T01:18:15.359Z,26.23
2023-02-24T01:22:19.513Z,24.92
2023-02-24T01:26:21.332Z,25.37
2023-02-24T01:30:23.023Z,25.77
2023-02-24T01:34:26.255Z,23.30
2023-02-24T01:38:28.082Z,30.80
2023-02-24T01:42:29.879Z,27.65
2023-02-24T01:46:36.060Z,25.33
2023-02-24T01:50:38.560Z,24.50
2023-02-24T01:54:42.958Z,20.08
2023-02-24T01:58:44.680Z,23.83
2023-02-24T02:02:52.602Z,27.95
2023-02-24T02:06:54.406Z,19.62
2023-02-24T02:11:02.730Z,27.95
2023-02-24T02:15:06.543Z,30.52
2023-02-24T02:19:30.450Z,26.10
2023-02-24T02:23:43.436Z,20.08
2023-02-24T02:28:08.521Z,25.12
2023-02-24T02:32:34.276Z,20.85
2023-02-24T02:36:54.746Z,21.85
2023-02-24T02:41:17.257Z,18.77
2023-02-24T02:45:24.538Z,25.15
2023-02-24T02:49:34.185Z,19.75
2023-02-24T02:53:49.289Z,22.15
2023-02-24T02:57:55.066Z,20.35
2023-02-24T03:02:11.485Z,18.98
2023-02-24T03:06:23.207Z,16.93
2023-02-24T03:10:29.755Z,19.60
2023-02-24T03:14:34.896Z,19.25
2023-02-24T03:18:44.561Z,16.50
2023-02-24T03:22:54.708Z,24.80
2023-02-24T03:27:12.938Z,23.48
2023-02-24T03:31:28.034Z,20.92
2023-02-24T03:35:34.241Z,14.13
2023-02-24T03:39:36.479Z,19.30
2023-02-24T03:43:46.301Z,17.92
2023-02-24T03:47:48.238Z,11.30
2023-02-24T03:52:12.529Z,16.58
2023-02-24T03:56:40.267Z,12.70
2023-02-24T04:05:21.514Z,12.10
2023-02-24T04:09:40.666Z,12.77
2023-02-24T04:13:49.765Z,15.77
2023-02-24T04:17:58.501Z,14.45
2023-02-24T04:22:01.292Z,14.90
2023-02-24T04:26:03.262Z,14.23
2023-02-24T04:30:06.902Z,17.40
2023-02-24T04:34:09.517Z,16.65
2023-02-24T04:38:11.738Z,18.25
2023-02-24T04:42:13.332Z,27.40
2023-02-24T04:46:15.322Z,19.45
2023-02-24T04:50:24.905Z,23.17
2023-02-24T04:54:27.805Z,19.52
2023-02-24T04:58:29.512Z,16.27
2023-02-24T05:02:31.738Z,16.48
2023-02-24T05:06:34.135Z,13.90
2023-02-24T05:10:41.929Z,22.65
2023-02-24T05:14:43.954Z,20.08
2023-02-24T05:18:45.705Z,17.98
2023-02-24T05:22:53.479Z,19.23
2023-02-24T05:26:59.416Z,25.55
2023-02-24T05:31:10.004Z,17.12
2023-02-24T05:35:11.809Z,16.50
2023-02-24T05:39:19.062Z,22.62
2023-02-24T05:43:20.712Z,16.40
2023-02-24T05:47:23.617Z,22.10
2023-02-24T05:51:35.766Z,16.60
2023-02-24T05:55:37.420Z,16.92
2023-02-24T05:59:40.884Z,26.83
2023-02-24T06:03:48.154Z,21.70
2023-02-24T06:07:49.818Z,19.80
2023-02-24T06:11:51.494Z,13.70
2023-02-24T06:15:57.057Z,17.70
2023-02-24T06:19:58.749Z,13.40
2023-02-24T06:24:00.709Z,12.32
2023-02-24T06:28:02.382Z,21.67
2023-02-24T06:32:08.538Z,21.85
2023-02-24T06:36:10.326Z,15.10
2023-02-24T06:40:18.387Z,16.92
2023-02-24T06:44:20.043Z,13.82
2023-02-24T06:48:22.899Z,16.58
2023-02-24T06:52:26.289Z,17.05
2023-02-24T06:56:28.369Z,11.85
2023-02-24T07:00:40.728Z,14.00
2023-02-24T07:04:45.047Z,14.52
2023-02-24T07:08:48.282Z,16.50
2023-02-24T07:12:50.962Z,18.83
2023-02-24T07:16:58.344Z,13.27
2023-02-24T07:21:05.063Z,19.58
2023-02-24T07:25:07.114Z,11.90
2023-02-24T07:29:11.276Z,10.30
2023-02-24T07:33:14.150Z,10.85
2023-02-24T07:37:16.649Z,13.82
2023-02-24T07:41:22.725Z,12.18
2023-02-24T07:45:24.794Z,9.45
2023-02-24T07:49:27.922Z,13.40
2023-02-24T07:53:29.634Z,14.63
2023-02-24T07:57:33.180Z,15.40
2023-02-24T08:01:39.805Z,15.70
2023-02-24T08:05:43.466Z,18.70
2023-02-24T08:09:45.240Z,16.23
2023-02-24T08:13:47.028Z,14.00
2023-02-24T08:17:48.675Z,14.65
2023-02-24T08:21:53.072Z,14.50
2023-02-24T08:25:54.766Z,16.40
2023-02-24T08:30:01.409Z,17.17
2023-02-24T08:34:03.463Z,16.90
2023-02-24T08:38:07.592Z,12.85
2023-02-24T08:42:14.073Z,15.07
2023-02-24T08:46:20.840Z,17.73
2023-02-24T08:50:22.531Z,15.88
2023-02-24T08:54:27.616Z,13.50
2023-02-24T08:58:29.317Z,14.00
2023-02-24T09:02:31.033Z,9.02
2023-02-24T09:06:52.545Z,13.85
2023-02-24T09:10:59.217Z,9.27
2023-02-24T09:15:07.379Z,9.18
2023-02-24T09:19:40.331Z,11.73
2023-02-24T09:23:45.938Z,10.45
2023-02-24T09:27:55.363Z,11.55
2023-02-24T09:32:07.046Z,10.25
2023-02-24T09:36:19.823Z,13.13
2023-02-24T09:40:21.524Z,8.88
2023-02-24T09:44:36.356Z,10.68
2023-02-24T09:48:56.263Z,12.50
2023-02-24T09:53:13.824Z,8.85
2023-02-24T09:57:25.256Z,9.30
2023-02-24T10:01:33.327Z,9.13
2023-02-24T10:05:49.392Z,8.50
2023-02-24T10:10:18.962Z,14.65
2023-02-24T10:14:52.919Z,8.70
2023-02-24T10:19:16.419Z,16.77
2023-02-24T10:23:38.612Z,10.02
2023-02-24T10:27:58.156Z,6.85
2023-02-24T10:32:17.478Z,13.02
2023-02-24T10:36:25.763Z,6.22
2023-02-24T10:40:44.592Z,7.85
2023-02-24T10:45:01.352Z,12.68
2023-02-24T10:49:09.351Z,8.85
2023-02-24T10:53:37.625Z,13.50
2023-02-24T10:57:58.510Z,13.85
2023-02-24T11:02:23.658Z,16.17
2023-02-24T11:06:52.579Z,10.98
2023-02-24T11:10:58.735Z,16.62
2023-02-24T11:15:35.890Z,11.70
2023-02-24T11:20:10.616Z,16.10
2023-02-24T11:24:18.816Z,9.40
2023-02-24T11:28:44.782Z,13.10
2023-02-24T11:33:24.461Z,12.02
2023-02-24T11:37:34.526Z,12.98
2023-02-24T11:41:43.768Z,13.93
2023-02-24T11:46:02.121Z,15.00
2023-02-24T11:50:39.619Z,18.40
2023-02-24T11:54:47.716Z,14.93
2023-02-24T11:58:59.850Z,10.82
2023-02-24T12:03:09.405Z,11.93
2023-02-24T12:07:39.674Z,17.90
2023-02-24T12:12:00.101Z,13.65
2023-02-24T12:16:35.394Z,16.42
2023-02-24T12:20:55.395Z,19.00
2023-02-24T12:24:57.249Z,14.95
2023-02-24T12:29:23.081Z,13.80
2023-02-24T12:33:27.887Z,15.38
2023-02-24T12:38:03.513Z,14.57
2023-02-24T12:42:48.310Z,10.93
2023-02-24T12:47:14.680Z,20.25
2023-02-24T12:51:24.018Z,15.30
2023-02-24T12:55:50.179Z,16.98
2023-02-24T12:59:54.530Z,14.93
2023-02-24T13:04:31.144Z,17.27
2023-02-24T13:08:51.587Z,16.75
2023-02-24T13:13:16.068Z,16.87
2023-02-24T13:17:22.046Z,15.00
2023-02-24T13:21:24.738Z,19.50
2023-02-24T13:25:33.450Z,15.60
2023-02-24T13:29:47.231Z,11.93
2023-02-24T13:33:48.848Z,18.48
2023-02-24T13:37:51.766Z,13.52
2023-02-24T13:42:07.102Z,17.65
2023-02-24T13:46:19.309Z,17.45
2023-02-24T13:50:25.032Z,18.37
2023-02-24T13:54:58.382Z,16.58
2023-02-24T13:59:06.132Z,14.82
2023-02-24T14:03:18.117Z,17.40
2023-02-24T14:07:25.682Z,16.42
2023-02-24T14:11:32.422Z,18.55
2023-02-24T14:15:35.255Z,11.57
2023-02-24T14:19:36.990Z,17.90
2023-02-24T14:23:38.650Z,15.60
2023-02-24T14:27:42.949Z,18.35
2023-02-24T14:31:53.538Z,14.18
2023-02-24T14:35:55.846Z,18.15
2023-02-24T14:40:00.064Z,14.40
2023-02-24T14:44:21.132Z,20.52
2023-02-24T14:48:30.796Z,16.17
2023-02-24T14:53:07.485Z,12.90
2023-02-24T14:57:15.935Z,15.70
2023-02-24T15:01:23.841Z,17.20
2023-02-24T15:05:25.603Z,20.77
2023-02-24T15:09:41.195Z,15.93
2023-02-24T15:13:50.285Z,21.52
2023-02-24T15:17:56.965Z,15.93
2023-02-24T15:21:58.683Z,15.52
2023-02-24T15:26:01.541Z,16.25
2023-02-24T15:30:24.692Z,15.32
2023-02-24T15:34:31.059Z,14.45
2023-02-24T15:38:39.696Z,19.45
2023-02-24T15:42:54.157Z,20.37
2023-02-24T15:46:58.126Z,16.05
2023-02-24T15:51:05.137Z,15.43
2023-02-24T15:55:07.215Z,14.60
2023-02-24T15:59:14.870Z,22.52
2023-02-24T16:03:16.524Z,20.75
2023-02-24T16:07:25.707Z,18.30
2023-02-24T16:11:31.530Z,24.08
2023-02-24T16:15:37.792Z,21.02
2023-02-24T16:19:39.434Z,19.97
2023-02-24T16:23:41.082Z,28.17
2023-02-24T16:27:43.145Z,27.15
2023-02-24T16:31:45.093Z,22.42
2023-02-24T16:35:46.910Z,26.45
2023-02-24T16:39:49.390Z,24.10
2023-02-24T16:43:51.493Z,28.62
2023-02-24T16:47:54.911Z,17.67
2023-02-24T16:51:56.555Z,18.00
2023-02-24T16:55:58.238Z,14.05
2023-02-24T17:00:00.359Z,20.62
2023-02-24T17:04:04.796Z,17.02
2023-02-24T17:08:06.928Z,18.77
2023-02-24T17:12:12.551Z,17.95
2023-02-24T17:16:14.324Z,13.00
2023-02-24T17:20:18.341Z,16.12
2023-02-24T17:24:20.737Z,12.90
2023-02-24T17:28:22.834Z,14.02
2023-02-24T17:32:24.690Z,19.40
2023-02-24T17:36:26.427Z,15.85
2023-02-24T17:40:28.158Z,14.27
2023-02-24T17:44:29.824Z,13.95
2023-02-24T17:48:31.596Z,11.82
2023-02-24T17:52:33.394Z,18.75
2023-02-24T17:56:35.152Z,16.42
2023-02-24T18:00:38.307Z,10.80
2023-02-24T18:04:40.437Z,14.60
2023-02-24T18:08:42.282Z,11.65
2023-02-24T18:12:43.980Z,13.30
2023-02-24T18:16:45.592Z,11.45
2023-02-24T18:20:47.481Z,9.35
2023-02-24T18:24:49.325Z,14.25
2023-02-24T18:28:54.321Z,10.15
2023-02-24T18:32:56.300Z,13.48
2023-02-24T18:36:58.333Z,11.10
2023-02-24T18:41:06.195Z,8.45
2023-02-24T18:45:08.240Z,12.88
2023-02-24T18:49:11.520Z,16.87
2023-02-24T18:53:13.181Z,18.10
2023-02-24T18:57:14.885Z,8.65
2023-02-24T19:01:25.764Z,9.88
2023-02-24T19:05:37.745Z,9.60
2023-02-24T19:09:41.758Z,12.52
2023-02-24T19:13:44.098Z,10.05
2023-02-24T19:17:46.231Z,6.75
2023-02-24T19:21:49.366Z,6.43
2023-02-24T19:25:51.466Z,9.35
2023-02-24T19:29:54.297Z,5.65
2023-02-24T19:34:01.083Z,11.12
2023-02-24T19:38:02.835Z,13.65
2023-02-24T19:42:06.704Z,9.85
2023-02-24T19:46:11.962Z,7.53
2023-02-24T19:50:14.750Z,13.02
2023-02-24T19:54:16.730Z,10.18
2023-02-24T19:58:18.350Z,9.45
2023-02-24T20:02:20.041Z,10.85
2023-02-24T20:06:26.756Z,8.63
2023-02-24T20:10:28.367Z,11.18
2023-02-24T20:14:30.026Z,12.13
2023-02-24T20:18:32.165Z,13.32
2023-02-24T20:22:33.830Z,8.80
2023-02-24T20:26:36.974Z,15.40
2023-02-24T20:30:38.655Z,11.45
2023-02-24T20:34:41.061Z,16.00
2023-02-24T20:38:43.082Z,10.70
2023-02-24T20:42:44.718Z,17.20
2023-02-24T20:46:46.380Z,8.80
2023-02-24T20:50:48.274Z,15.48
2023-02-24T20:54:50.033Z,8.18
2023-02-24T20:58:53.979Z,13.35
2023-02-24T21:02:57.749Z,11.82
2023-02-24T21:06:59.423Z,14.80
2023-02-24T21:11:01.758Z,14.85
2023-02-24T21:15:04.142Z,16.60
2023-02-24T21:19:05.757Z,17.33
2023-02-24T21:23:09.265Z,15.93
2023-02-24T21:27:10.903Z,10.57
2023-02-24T21:31:16.702Z,16.08
2023-02-24T21:35:18.453Z,14.68
2023-02-24T21:39:20.751Z,14.40
2023-02-24T21:43:22.766Z,16.62
2023-02-24T21:47:24.721Z,22.35
2023-02-24T21:51:27.655Z,21.55
2023-02-24T21:55:29.321Z,13.35
2023-02-24T21:59:30.991Z,18.62
2023-02-24T22:03:32.762Z,22.27
2023-02-24T22:07:36.837Z,15.93
2023-02-24T22:11:40.850Z,26.92
2023-02-24T22:15:42.551Z,21.08
2023-02-24T22:19:44.642Z,16.73
2023-02-24T22:23:49.427Z,21.55
2023-02-24T22:27:51.023Z,22.98
2023-02-24T22:31:53.393Z,17.27
2023-02-24T22:35:55.514Z,17.25
2023-02-24T22:39:57.144Z,19.27
2023-02-24T22:44:00.036Z,26.73
2023-02-24T22:48:01.735Z,20.42
2023-02-24T22:52:03.852Z,16.75
2023-02-24T22:56:06.679Z,21.83
2023-02-24T23:00:19.865Z,17.02
2023-02-24T23:04:21.486Z,20.83
2023-02-24T23:08:24.009Z,21.73
2023-02-24T23:12:25.698Z,19.95
2023-02-24T23:16:31.573Z,18.52
2023-02-24T23:20:33.401Z,9.18
2023-02-24T23:24:35.970Z,14.07
2023-02-24T23:28:38.136Z,21.95
2023-02-24T23:32:39.932Z,19.80
2023-02-24T23:36:44.444Z,14.77
2023-02-24T23:40:50.943Z,22.17
2023-02-24T23:44:52.870Z,15.02
2023-02-24T23:48:57.153Z,14.75
2023-02-24T23:52:59.005Z,18.12
2023-02-24T23:57:00.896Z,9.95
